Time;durP1;ratioP1;P1;durP2;ratioP2;P2;SDS_P1;SDS_P2;PMS_P1;PMS_P2;Temp;Humidity;BMP_temperature;BMP_pressure;BME280_temperature;BME280_humidity;BME280_pressure;Samples;Min_cycle;Max_cycle;Signal;HPM_P1;HPM_P2
2022/06/27 00:02:07;;;;;;;;;;;;;;;22.84;60.43;99732.63;4445618;32;20030;-88
2022/06/27 00:04:32;;;;;;;;;;;;;;;22.74;60.43;99731.69;4457833;32;19995;-89
2022/06/27 00:06:57;;;;;;;;;;;;;;;22.89;60.44;99732.22;4457918;32;20313;-89
2022/06/27 00:09:23;;;;;;;;;;;;;;;22.80;60.44;99733.81;4458103;32;20367;-88
2022/06/27 00:11:48;;;;;;;;;;;;;;;22.84;60.43;99732.63;4444961;32;20022;-86
2022/06/27 00:14:13;;;;;;;;;;;;;;;22.66;60.42;99736.75;4444725;32;22040;-88
2022/06/27 00:16:38;;;;;;;;;;;;;;;22.53;60.42;99731.63;4445378;32;19973;-87
2022/06/27 00:19:04;;;;;;;;;;;;;;;22.47;60.41;99736.56;4447293;32;19985;-87
2022/06/27 00:21:29;;;;;;;;;;;;;;;22.47;60.41;99741.87;4444921;32;20035;-87
2022/06/27 00:23:54;;;;;;;;;;;;;;;22.62;60.42;99735.34;4445054;32;20019;-87
2022/06/27 00:26:20;;;;;;;;;;;;;;;22.77;60.43;99733.25;4445727;32;19991;-87
2022/06/27 00:28:45;;;;;;;;;;;;;;;22.65;60.43;99730.59;4458362;32;19997;-87
2022/06/27 00:31:10;;;;;;;;;;;;;;;22.48;60.41;99730.34;4449003;32;19997;-87
2022/06/27 00:33:35;;;;;;;;;;;;;;;22.41;60.42;99735.28;4454525;32;19973;-87
2022/06/27 00:36:01;;;;;;;;;;;;;;;22.48;60.42;99728.53;4464251;32;19968;-88
2022/06/27 00:38:26;;;;;;;;;;;;;;;22.28;60.40;99731.94;4446454;32;20353;-88
2022/06/27 00:40:51;;;;;;;;;;;;;;;22.17;60.39;99739.91;4447825;32;20019;-87
2022/06/27 00:43:16;;;;;;;;;;;;;;;22.15;60.39;99734.72;4444895;32;20053;-87
2022/06/27 00:45:42;;;;;;;;;;;;;;;22.32;60.40;99726.25;4445448;32;19973;-89
2022/06/27 00:48:07;;;;;;;;;;;;;;;22.46;60.41;99733.09;4445740;32;20035;-88
2022/06/27 00:50:32;;;;;;;;;;;;;;;22.43;60.41;99730.69;4445395;32;19989;-87
2022/06/27 00:52:57;;;;;;;;;;;;;;;22.42;60.41;99728.16;4463086;32;19985;-88
2022/06/27 00:55:23;;;;;;;;;;;;;;;22.43;60.41;99728.03;4436642;32;23932;-88
2022/06/27 00:57:48;;;;;;;;;;;;;;;22.27;60.40;99741.72;4431804;32;20034;-88
2022/06/27 01:00:13;;;;;;;;;;;;;;;22.16;60.39;99747.00;4447332;32;20153;-88
2022/06/27 01:02:39;;;;;;;;;;;;;;;22.04;60.40;99737.41;4444920;32;20013;-88
2022/06/27 01:05:04;;;;;;;;;;;;;;;22.05;60.39;99747.88;4445315;32;19969;-88
2022/06/27 01:07:30;;;;;;;;;;;;;;;21.96;60.39;99750.37;4445161;32;20045;-88
2022/06/27 01:09:55;;;;;;;;;;;;;;;21.89;60.38;99747.38;4445008;32;20345;-88
2022/06/27 01:12:21;;;;;;;;;;;;;;;21.90;60.38;99751.69;4458840;32;19980;-89
2022/06/27 01:14:48;;;;;;;;;;;;;;;21.76;60.37;99749.28;4445832;32;20277;-88
2022/06/27 01:17:13;;;;;;;;;;;;;;;21.99;60.39;99744.81;4445741;32;19989;-88
2022/06/27 01:19:39;;;;;;;;;;;;;;;22.00;60.38;99744.72;4446191;32;19981;-87
2022/06/27 01:22:08;;;;;;;;;;;;;;;22.05;60.39;99745.22;4445782;32;20056;-88
2022/06/27 01:24:33;;;;;;;;;;;;;;;22.03;60.39;99749.78;4445806;32;19980;-88
2022/06/27 01:26:58;;;;;;;;;;;;;;;21.91;60.38;99744.59;4445329;32;19999;-89
2022/06/27 01:29:24;;;;;;;;;;;;;;;21.84;60.38;99743.41;4458465;32;20025;-88
2022/06/27 01:31:49;;;;;;;;;;;;;;;21.83;60.38;99744.38;4443935;32;20045;-82
2022/06/27 01:34:14;;;;;;;;;;;;;;;21.83;60.38;99737.25;4469705;32;20316;-83
2022/06/27 01:36:42;;;;;;;;;;;;;;;21.74;60.37;99741.47;4469783;32;20379;-81
2022/06/27 01:39:09;;;;;;;;;;;;;;;21.87;60.39;99737.84;4471093;32;19976;-81
2022/06/27 01:41:34;;;;;;;;;;;;;;;21.89;60.38;99744.72;4469535;32;20012;-82
2022/06/27 01:44:00;;;;;;;;;;;;;;;21.81;60.38;99736.53;4469780;32;19977;-81
2022/06/27 01:46:36;;;;;;;;;;;;;;;21.71;60.38;99740.84;4469337;32;20630;-82
2022/06/27 01:49:01;;;;;;;;;;;;;;;21.66;60.37;99732.44;4455639;32;20007;-82
2022/06/27 01:51:27;;;;;;;;;;;;;;;21.69;60.37;99740.97;4469699;32;20013;-82
2022/06/27 01:53:52;;;;;;;;;;;;;;;21.57;60.37;99741.09;4455454;32;19989;-82
2022/06/27 01:56:17;;;;;;;;;;;;;;;21.62;60.37;99739.78;4455477;32;20367;-82
2022/06/27 01:58:42;;;;;;;;;;;;;;;21.59;60.36;99734.72;4470474;32;24552;-83
2022/06/27 02:01:08;;;;;;;;;;;;;;;21.32;60.36;99737.69;4472153;32;24599;-82
2022/06/27 02:03:33;;;;;;;;;;;;;;;21.50;60.37;99738.06;4470200;32;28845;-82
2022/06/27 02:05:58;;;;;;;;;;;;;;;21.40;60.36;99739.75;4454790;32;27946;-81
2022/06/27 02:08:23;;;;;;;;;;;;;;;21.45;60.36;99743.72;4469059;32;27122;-82
2022/06/27 02:10:48;;;;;;;;;;;;;;;21.39;60.35;99746.00;4455411;32;19977;-82
2022/06/27 02:13:14;;;;;;;;;;;;;;;21.45;60.36;99748.19;4455169;32;20007;-81
2022/06/27 02:15:58;;;;;;;;;;;;;;;21.49;60.36;99746.97;4455287;32;20382;-82
2022/06/27 02:18:23;;;;;;;;;;;;;;;21.32;60.36;99744.81;4455486;32;20454;-81
2022/06/27 02:20:48;;;;;;;;;;;;;;;21.35;60.35;99753.34;4456295;32;19977;-82
2022/06/27 02:23:13;;;;;;;;;;;;;;;21.34;60.35;99754.31;4443294;32;34649;-82
2022/06/27 02:25:39;;;;;;;;;;;;;;;21.37;60.35;99758.53;4457373;32;20007;-82
2022/06/27 02:28:04;;;;;;;;;;;;;;;21.22;60.34;99757.00;4458366;32;20332;-81
2022/06/27 02:30:29;;;;;;;;;;;;;;;21.18;60.35;99758.19;4459112;32;29149;-82
2022/06/27 02:32:54;;;;;;;;;;;;;;;21.15;60.34;99759.28;4463206;32;24774;-81
2022/06/27 02:35:20;;;;;;;;;;;;;;;21.18;60.35;99756.41;4469158;32;20004;-81
2022/06/27 02:37:46;;;;;;;;;;;;;;;21.23;60.34;99762.19;4469342;32;19995;-82
2022/06/27 02:40:11;;;;;;;;;;;;;;;21.07;60.34;99759.88;4469315;32;20349;-82
2022/06/27 02:42:37;;;;;;;;;;;;;;;21.13;60.34;99766.50;4454872;32;20272;-83
2022/06/27 02:45:02;;;;;;;;;;;;;;;21.03;60.34;99758.38;4469355;32;19992;-82
2022/06/27 02:47:29;;;;;;;;;;;;;;;21.08;60.34;99768.66;4455238;32;20012;-82
2022/06/27 02:49:54;;;;;;;;;;;;;;;21.07;60.34;99762.50;4442040;32;19981;-82
2022/06/27 02:52:23;;;;;;;;;;;;;;;20.98;60.33;99770.28;4473686;32;25809;-82
2022/06/27 02:54:49;;;;;;;;;;;;;;;21.01;60.34;99773.53;4459885;32;19988;-82
2022/06/27 02:57:17;;;;;;;;;;;;;;;20.96;60.33;99774.84;4444367;32;20040;-81
2022/06/27 02:59:43;;;;;;;;;;;;;;;21.01;60.34;99775.34;4471505;32;20381;-81
2022/06/27 03:02:09;;;;;;;;;;;;;;;20.90;60.32;99784.09;4459882;32;19988;-81
2022/06/27 03:04:34;;;;;;;;;;;;;;;20.96;60.33;99785.44;4446885;32;19989;-82
2022/06/27 03:06:59;;;;;;;;;;;;;;;21.02;60.34;99780.50;4459474;32;19992;-82
2022/06/27 03:09:24;;;;;;;;;;;;;;;21.10;60.34;99790.56;4459257;32;26406;-83
2022/06/27 03:11:50;;;;;;;;;;;;;;;21.18;60.35;99784.66;4474192;32;19999;-82
2022/06/27 03:14:15;;;;;;;;;;;;;;;21.24;60.35;99793.03;4447877;32;20273;-82
2022/06/27 03:16:41;;;;;;;;;;;;;;;21.39;60.36;99794.53;4459627;32;20317;-83
2022/06/27 03:19:06;;;;;;;;;;;;;;;21.37;60.35;99796.44;4446473;32;20101;-82
2022/06/27 03:21:31;;;;;;;;;;;;;;;21.44;60.35;99791.50;4459570;32;20007;-82
2022/06/27 03:23:57;;;;;;;;;;;;;;;21.38;60.35;99800.78;4459758;32;20024;-83
2022/06/27 03:26:23;;;;;;;;;;;;;;;21.68;60.37;99799.38;4474311;32;20146;-83
2022/06/27 03:28:48;;;;;;;;;;;;;;;21.82;60.37;99793.03;4459332;32;20050;-82
2022/06/27 03:31:13;;;;;;;;;;;;;;;21.63;60.37;99797.09;4445966;32;26814;-84
2022/06/27 03:33:39;;;;;;;;;;;;;;;21.64;60.37;99803.22;4460222;32;20000;-83
2022/06/27 03:36:04;;;;;;;;;;;;;;;21.81;60.37;99796.66;4446371;32;19993;-82
2022/06/27 03:38:30;;;;;;;;;;;;;;;21.77;60.37;99804.00;4459429;32;19977;-82
2022/06/27 03:40:57;;;;;;;;;;;;;;;21.88;60.38;99803.97;4473506;32;19991;-82
2022/06/27 03:43:22;;;;;;;;;;;;;;;22.01;60.38;99798.59;4459299;32;20352;-82
2022/06/27 03:45:47;;;;;;;;;;;;;;;21.92;60.37;99805.44;4473296;32;20008;-82
2022/06/27 03:49:59;;;;;;;;;;;;;;;22.02;60.39;99801.13;4473696;32;19999;-82
2022/06/27 03:50:58;;;;;;;;;;;;;;;22.21;60.39;99805.81;4461547;32;20436;-83
2022/06/27 03:53:23;;;;;;;;;;;;;;;22.29;60.40;99799.94;4466720;32;19989;-82
2022/06/27 03:55:48;;;;;;;;;;;;;;;22.37;60.40;99803.63;4456833;32;31354;-83
2022/06/27 03:58:13;;;;;;;;;;;;;;;22.52;60.41;99800.72;4474404;32;29115;-82
2022/06/27 04:00:38;;;;;;;;;;;;;;;22.40;60.40;99799.06;4469771;32;31943;-81
2022/06/27 04:03:04;;;;;;;;;;;;;;;22.55;60.40;99801.31;4456387;32;25105;-81
2022/06/27 04:05:30;;;;;;;;;;;;;;;22.81;60.42;99796.56;4470659;32;19980;-82
2022/06/27 04:07:56;;;;;;;;;;;;;;;22.93;60.43;99808.81;4455691;32;23454;-83
2022/06/27 04:10:21;;;;;;;;;;;;;;;22.88;60.43;99810.19;4456222;32;19997;-83
2022/06/27 04:12:46;;;;;;;;;;;;;;;22.83;60.43;99804.41;4456071;32;20276;-82
2022/06/27 04:15:12;;;;;;;;;;;;;;;23.04;60.44;99810.63;4455997;32;20333;-83
2022/06/27 04:17:37;;;;;;;;;;;;;;;23.15;60.44;99807.91;4456461;32;20323;-84
2022/06/27 04:20:02;;;;;;;;;;;;;;;23.32;60.45;99808.31;4457435;32;19987;-83
2022/06/27 04:22:28;;;;;;;;;;;;;;;23.41;60.45;99816.34;4458539;32;20019;-83
2022/06/27 04:24:53;;;;;;;;;;;;;;;23.61;60.47;99813.84;4459415;32;20033;-83
2022/06/27 04:27:20;;;;;;;;;;;;;;;23.72;60.47;99821.75;4464008;32;19988;-82
2022/06/27 04:29:45;;;;;;;;;;;;;;;23.89;60.47;99813.16;4445637;32;19980;-83
2022/06/27 04:32:10;;;;;;;;;;;;;;;23.93;60.48;99819.94;4455034;32;24377;-82
2022/06/27 04:34:36;;;;;;;;;;;;;;;24.09;60.49;99822.91;4455975;32;19989;-83
2022/06/27 04:37:03;;;;;;;;;;;;;;;24.15;60.49;99818.91;4442406;32;19993;-82
2022/06/27 04:39:28;;;;;;;;;;;;;;;24.26;60.50;99820.63;4440296;32;20020;-82
2022/06/27 04:41:54;;;;;;;;;;;;;;;24.39;60.51;99807.97;4464926;32;19985;-83
2022/06/27 04:44:19;;;;;;;;;;;;;;;24.59;60.51;99817.66;4455950;32;20000;-83
2022/06/27 04:46:47;;;;;;;;;;;;;;;24.71;60.52;99818.37;4456098;32;19992;-83
2022/06/27 04:49:14;;;;;;;;;;;;;;;24.69;60.52;99818.53;4457811;32;19973;-84
2022/06/27 04:51:40;;;;;;;;;;;;;;;24.97;60.53;99814.22;4456102;32;19999;-84
2022/06/27 04:54:07;;;;;;;;;;;;;;;25.14;60.54;99817.19;4455956;32;20464;-83
2022/06/27 04:56:32;;;;;;;;;;;;;;;25.18;60.54;99813.28;4456121;32;19968;-83
2022/06/27 04:58:58;;;;;;;;;;;;;;;25.27;60.55;99807.94;4443040;32;20043;-84
2022/06/27 05:01:23;;;;;;;;;;;;;;;25.33;60.55;99814.53;4455936;32;19993;-84
2022/06/27 05:03:49;;;;;;;;;;;;;;;25.40;60.56;99821.81;4456141;32;20004;-83
2022/06/27 05:06:14;;;;;;;;;;;;;;;25.63;60.57;99824.16;4455840;32;19973;-84
2022/06/27 05:08:39;;;;;;;;;;;;;;;25.76;60.57;99818.53;4455965;32;19973;-83
2022/06/27 05:11:04;;;;;;;;;;;;;;;25.77;60.57;99814.88;4456775;32;20031;-84
2022/06/27 05:13:31;;;;;;;;;;;;;;;25.76;60.57;99824.72;4469357;32;30076;-84
2022/06/27 05:15:56;;;;;;;;;;;;;;;25.81;60.58;99822.47;4454930;32;20000;-83
2022/06/27 05:18:21;;;;;;;;;;;;;;;25.83;60.57;99823.16;4455206;32;29128;-83
2022/06/27 05:20:50;;;;;;;;;;;;;;;25.90;60.58;99821.59;4455763;32;20739;-83
2022/06/27 05:23:15;;;;;;;;;;;;;;;26.05;60.59;99818.47;4455603;32;19992;-84
2022/06/27 05:25:41;;;;;;;;;;;;;;;25.96;60.59;99813.00;4455686;32;20088;-83
2022/06/27 05:28:06;;;;;;;;;;;;;;;26.01;60.59;99816.06;4455535;32;20034;-84
2022/06/27 05:30:33;;;;;;;;;;;;;;;26.25;60.60;99820.88;4458397;32;20019;-84
2022/06/27 05:32:58;;;;;;;;;;;;;;;26.19;60.60;99815.31;4469854;32;19999;-83
2022/06/27 05:35:24;;;;;;;;;;;;;;;26.38;60.60;99815.25;4455537;32;19989;-83
2022/06/27 05:37:50;;;;;;;;;;;;;;;26.39;60.61;99824.09;4469818;32;20025;-83
2022/06/27 05:40:17;;;;;;;;;;;;;;;26.37;60.61;99821.56;4455646;32;19988;-84
2022/06/27 05:42:42;;;;;;;;;;;;;;;26.31;60.61;99820.31;4470073;32;20028;-84
2022/06/27 05:45:09;;;;;;;;;;;;;;;26.54;60.61;99818.13;4469438;32;25237;-84
2022/06/27 05:47:35;;;;;;;;;;;;;;;26.51;60.62;99822.94;4455745;32;20040;-85
2022/06/27 05:50:02;;;;;;;;;;;;;;;26.61;60.62;99819.19;4455849;32;20396;-84
2022/06/27 05:52:29;;;;;;;;;;;;;;;26.70;60.62;99829.94;4473100;32;19988;-85
2022/06/27 05:54:55;;;;;;;;;;;;;;;26.70;60.62;99828.13;4481776;32;19953;-83
2022/06/27 05:57:20;;;;;;;;;;;;;;;26.77;60.62;99823.03;4466677;32;19996;-83
2022/06/27 05:59:46;;;;;;;;;;;;;;;26.76;60.62;99824.03;4458904;32;20028;-84
2022/06/27 06:02:11;;;;;;;;;;;;;;;26.88;60.64;99828.16;4456457;32;20278;-84
2022/06/27 06:04:37;;;;;;;;;;;;;;;26.97;60.64;99824.56;4455395;32;20013;-85
2022/06/27 06:07:03;;;;;;;;;;;;;;;27.06;60.64;99837.06;4469909;32;20008;-85
2022/06/27 06:09:28;;;;;;;;;;;;;;;27.16;60.64;99837.81;4455577;32;20011;-84
2022/06/27 06:11:54;;;;;;;;;;;;;;;27.18;60.64;99835.81;4441956;32;19996;-85
2022/06/27 06:14:21;;;;;;;;;;;;;;;27.20;60.65;99843.69;4455512;32;19985;-85
2022/06/27 06:16:47;;;;;;;;;;;;;;;27.36;60.65;99837.66;4455773;32;20038;-85
2022/06/27 06:19:12;;;;;;;;;;;;;;;27.53;60.67;99840.31;4442605;32;19993;-85
2022/06/27 06:21:38;;;;;;;;;;;;;;;27.63;60.66;99836.72;4442551;32;20007;-84
2022/06/27 06:24:03;;;;;;;;;;;;;;;27.75;60.68;99848.84;4442535;32;19980;-85
2022/06/27 06:26:29;;;;;;;;;;;;;;;27.73;60.67;99843.66;4459476;32;20030;-85
2022/06/27 06:28:54;;;;;;;;;;;;;;;27.81;60.67;99838.34;4454875;32;20254;-85
2022/06/27 06:31:22;;;;;;;;;;;;;;;27.97;60.68;99847.50;4454963;32;21244;-84
2022/06/27 06:33:51;;;;;;;;;;;;;;;28.11;60.70;99842.38;4455819;32;20001;-85
2022/06/27 06:36:18;;;;;;;;;;;;;;;28.19;60.70;99848.78;4455036;32;20398;-85
2022/06/27 06:38:43;;;;;;;;;;;;;;;28.55;60.72;99847.63;4442333;32;19981;-85
2022/06/27 06:41:08;;;;;;;;;;;;;;;28.88;60.74;99850.44;4455305;32;20046;-85
2022/06/27 06:43:34;;;;;;;;;;;;;;;29.02;60.74;99855.97;4454989;32;20306;-84
2022/06/27 06:45:59;;;;;;;;;;;;;;;29.21;60.76;99843.28;4456911;32;19969;-84
2022/06/27 06:48:25;;;;;;;;;;;;;;;29.45;60.77;99835.28;4469083;32;19989;-85
2022/06/27 06:50:52;;;;;;;;;;;;;;;29.72;60.77;99841.28;4456350;32;20007;-84
2022/06/27 06:53:17;;;;;;;;;;;;;;;29.97;60.79;99842.06;4456257;32;19973;-84
2022/06/27 06:55:42;;;;;;;;;;;;;;;30.23;60.80;99840.84;4455563;32;20025;-84
2022/06/27 06:58:08;;;;;;;;;;;;;;;30.32;60.81;99838.16;4455500;32;20078;-84
2022/06/27 07:00:33;;;;;;;;;;;;;;;30.39;60.81;99839.13;4442791;32;20004;-85
2022/06/27 07:02:59;;;;;;;;;;;;;;;30.58;60.82;99840.56;4441784;32;20614;-86
2022/06/27 07:05:25;;;;;;;;;;;;;;;30.70;60.83;99837.31;4454912;32;19996;-85
2022/06/27 07:07:52;;;;;;;;;;;;;;;30.53;60.82;99841.91;4455444;32;19984;-86
2022/06/27 07:10:18;;;;;;;;;;;;;;;30.31;60.81;99841.84;4449039;32;19986;-86
2022/06/27 07:12:44;;;;;;;;;;;;;;;30.33;60.81;99842.50;4456718;32;19984;-86
2022/06/27 07:15:10;;;;;;;;;;;;;;;30.45;60.82;99839.25;4442303;32;20044;-86
2022/06/27 07:17:39;;;;;;;;;;;;;;;30.56;60.82;99840.72;4456607;32;20000;-86
2022/06/27 07:20:05;;;;;;;;;;;;;;;30.65;60.82;99833.47;4461245;32;19983;-87
2022/06/27 07:22:30;;;;;;;;;;;;;;;30.85;60.84;99842.78;4462152;32;19977;-87
2022/06/27 07:24:56;;;;;;;;;;;;;;;30.92;60.84;99832.97;4460165;32;19969;-87
2022/06/27 07:27:22;;;;;;;;;;;;;;;30.98;60.84;99832.25;4454860;32;20015;-87
2022/06/27 07:29:48;;;;;;;;;;;;;;;31.10;60.85;99832.69;4469274;32;19981;-87
2022/06/27 07:32:14;;;;;;;;;;;;;;;31.25;60.86;99839.00;4441730;32;19977;-87
2022/06/27 07:34:40;;;;;;;;;;;;;;;31.27;60.85;99839.66;4441397;32;19985;-87
2022/06/27 07:37:05;;;;;;;;;;;;;;;31.29;60.86;99843.00;4454486;32;19997;-88
2022/06/27 07:39:30;;;;;;;;;;;;;;;31.21;60.85;99840.37;4456653;32;20287;-87
2022/06/27 07:41:57;;;;;;;;;;;;;;;31.40;60.85;99849.81;4456895;32;19988;-86
2022/06/27 07:44:24;;;;;;;;;;;;;;;31.31;60.87;99849.03;4443617;32;19973;-87
2022/06/27 07:46:49;;;;;;;;;;;;;;;31.29;60.85;99850.25;4457181;32;19997;-87
2022/06/27 07:49:14;;;;;;;;;;;;;;;31.39;60.87;99848.97;4456839;32;20000;-87
2022/06/27 07:51:41;;;;;;;;;;;;;;;31.34;60.86;99851.38;4456388;32;23056;-87
2022/06/27 07:54:07;;;;;;;;;;;;;;;31.47;60.87;99856.16;4443836;32;19989;-87
2022/06/27 07:56:34;;;;;;;;;;;;;;;31.53;60.87;99859.97;4443472;32;20333;-87
2022/06/27 07:59:00;;;;;;;;;;;;;;;31.65;60.88;99853.09;4444060;32;20662;-85
2022/06/27 08:01:27;;;;;;;;;;;;;;;31.71;60.88;99847.87;4456726;32;20013;-86
2022/06/27 08:03:52;;;;;;;;;;;;;;;31.84;60.88;99847.25;4456937;32;19993;-86
2022/06/27 08:06:22;;;;;;;;;;;;;;;31.98;60.89;99848.28;4443660;32;20353;-86
2022/06/27 08:08:48;;;;;;;;;;;;;;;31.93;60.89;99856.06;4443782;32;19993;-85
2022/06/27 08:11:14;;;;;;;;;;;;;;;31.91;60.89;99863.50;4471055;32;20037;-86
2022/06/27 08:13:40;;;;;;;;;;;;;;;31.99;60.90;99856.19;4456512;32;20272;-86
2022/06/27 08:16:06;;;;;;;;;;;;;;;31.98;60.89;99857.19;4470901;32;20032;-85
2022/06/27 08:18:31;;;;;;;;;;;;;;;32.18;60.90;99856.63;4456138;32;19996;-85
2022/06/27 08:20:57;;;;;;;;;;;;;;;32.43;60.91;99852.69;4443242;32;20015;-86
2022/06/27 08:23:22;;;;;;;;;;;;;;;32.46;60.92;99852.31;4456787;32;20385;-85
2022/06/27 08:25:48;;;;;;;;;;;;;;;32.64;60.92;99859.97;4455732;32;25624;-86
2022/06/27 08:28:14;;;;;;;;;;;;;;;32.81;60.93;99855.22;4443291;32;19988;-85
2022/06/27 08:30:41;;;;;;;;;;;;;;;32.92;60.94;99863.66;4456240;32;20851;-85
2022/06/27 08:33:06;;;;;;;;;;;;;;;33.04;60.94;99858.59;4456083;32;19985;-85
2022/06/27 08:35:32;;;;;;;;;;;;;;;32.85;60.94;99867.28;4456072;32;20339;-85
2022/06/27 08:37:58;;;;;;;;;;;;;;;32.85;60.94;99870.81;4442986;32;19989;-85
2022/06/27 08:40:24;;;;;;;;;;;;;;;33.10;60.95;99873.16;4456085;32;19999;-85
2022/06/27 08:42:49;;;;;;;;;;;;;;;33.24;60.95;99867.72;4456104;32;19969;-84
2022/06/27 08:45:15;;;;;;;;;;;;;;;33.32;60.96;99857.84;4442425;32;28495;-85
2022/06/27 08:47:41;;;;;;;;;;;;;;;33.50;60.97;99861.75;4456463;32;19988;-85
2022/06/27 08:50:08;;;;;;;;;;;;;;;33.82;60.99;99863.03;4456141;32;19996;-86
2022/06/27 08:52:34;;;;;;;;;;;;;;;34.06;61.00;99859.09;4456325;32;19972;-85
2022/06/27 08:55:01;;;;;;;;;;;;;;;34.29;61.00;99855.25;4455841;32;20364;-86
2022/06/27 08:57:26;;;;;;;;;;;;;;;34.53;61.02;99849.37;4443121;32;19993;-85
2022/06/27 08:59:55;;;;;;;;;;;;;;;34.80;61.03;99844.09;4470011;32;19981;-86
2022/06/27 09:02:23;;;;;;;;;;;;;;;34.96;61.04;99841.03;4456362;32;20038;-85
2022/06/27 09:04:55;;;;;;;;;;;;;;;35.19;61.05;99840.66;4456271;32;20044;-85
2022/06/27 09:07:21;;;;;;;;;;;;;;;35.47;61.06;99835.06;4455881;32;20438;-85
2022/06/27 09:09:46;;;;;;;;;;;;;;;35.62;61.07;99833.00;4455814;32;19977;-85
2022/06/27 09:12:12;;;;;;;;;;;;;;;35.82;61.09;99835.69;4455462;32;33542;-85
2022/06/27 09:14:41;;;;;;;;;;;;;;;35.95;61.08;99835.66;4443040;32;20018;-85
2022/06/27 09:17:09;;;;;;;;;;;;;;;36.18;61.10;99825.19;4455975;32;19985;-85
2022/06/27 09:19:44;;;;;;;;;;;;;;;36.42;61.11;99820.97;4444573;32;19969;-85
2022/06/27 09:22:09;;;;;;;;;;;;;;;36.53;61.11;99817.59;4455809;32;20015;-85
2022/06/27 09:24:35;;;;;;;;;;;;;;;36.65;61.12;99822.31;4443019;32;20000;-85
2022/06/27 09:27:03;;;;;;;;;;;;;;;36.44;61.11;99820.78;4442877;32;20278;-85
2022/06/27 09:29:28;;;;;;;;;;;;;;;36.40;61.11;99819.53;4456188;32;20486;-85
2022/06/27 09:31:54;;;;;;;;;;;;;;;36.47;61.12;99821.19;4442222;32;22420;-85
2022/06/27 09:34:23;;;;;;;;;;;;;;;36.51;61.11;99813.44;4455188;32;28929;-85
2022/06/27 09:36:50;;;;;;;;;;;;;;;36.63;61.13;99822.53;4442915;32;19988;-85
2022/06/27 09:39:19;;;;;;;;;;;;;;;36.75;61.13;99815.38;4442724;32;20385;-84
2022/06/27 09:41:50;;;;;;;;;;;;;;;36.88;61.14;99815.31;4455883;32;19987;-86
2022/06/27 09:44:16;;;;;;;;;;;;;;;36.88;61.14;99815.31;4455370;32;20019;-85
2022/06/27 09:46:44;;;;;;;;;;;;;;;37.15;61.14;99816.00;4455659;32;20382;-85
2022/06/27 09:49:15;;;;;;;;;;;;;;;37.19;61.16;99806.38;4442770;32;19981;-85
2022/06/27 09:51:42;;;;;;;;;;;;;;;37.21;61.15;99814.28;4455925;32;20091;-85
2022/06/27 09:54:16;;;;;;;;;;;;;;;37.19;61.16;99817.22;4455719;32;19985;-85
2022/06/27 09:56:42;;;;;;;;;;;;;;;37.16;61.15;99804.09;4456573;32;19995;-85
2022/06/27 09:59:08;;;;;;;;;;;;;;;37.34;61.15;99803.34;4443142;32;19973;-85
2022/06/27 10:01:33;;;;;;;;;;;;;;;37.34;61.15;99795.19;4441813;32;19973;-85
2022/06/27 10:03:59;;;;;;;;;;;;;;;37.42;61.15;99802.25;4455579;32;19984;-84
2022/06/27 10:06:24;;;;;;;;;;;;;;;37.28;61.15;99796.06;4442237;32;20004;-85
2022/06/27 10:08:50;;;;;;;;;;;;;;;37.26;61.15;99794.66;4442574;32;19973;-85
2022/06/27 10:11:15;;;;;;;;;;;;;;;37.24;61.15;99791.28;4442643;32;20008;-85
2022/06/27 10:13:43;;;;;;;;;;;;;;;37.33;61.16;99787.25;4442447;32;19980;-85
2022/06/27 10:16:10;;;;;;;;;;;;;;;37.58;61.16;99787.25;4455667;32;20042;-85
2022/06/27 10:19:03;;;;;;;;;;;;;;;37.53;61.17;99789.81;4470155;32;19977;-86
2022/06/27 10:21:40;;;;;;;;;;;;;;;37.67;61.17;99780.47;4456676;32;19968;-85
2022/06/27 10:24:34;;;;;;;;;;;;;;;37.67;61.17;99788.63;4455845;32;19985;-85
2022/06/27 10:27:01;;;;;;;;;;;;;;;37.61;61.17;99775.94;4447340;32;20028;-85
2022/06/27 10:29:26;;;;;;;;;;;;;;;37.52;61.17;99771.84;4445037;32;20002;-85
2022/06/27 10:31:51;;;;;;;;;;;;;;;37.57;61.17;99780.16;4458433;32;20337;-85
2022/06/27 10:34:18;;;;;;;;;;;;;;;37.54;61.17;99776.00;4445946;32;20323;-85
2022/06/27 10:36:43;;;;;;;;;;;;;;;37.49;61.17;99773.13;4469574;32;19989;-85
2022/06/27 10:39:18;;;;;;;;;;;;;;;37.70;61.18;99767.28;4454623;32;28357;-85
2022/06/27 10:41:44;;;;;;;;;;;;;;;37.87;61.19;99767.56;4455616;32;19984;-85
2022/06/27 10:44:27;;;;;;;;;;;;;;;37.93;61.19;99774.78;4442226;32;19988;-85
2022/06/27 10:46:52;;;;;;;;;;;;;;;37.99;61.19;99768.44;4455409;32;20326;-85
2022/06/27 10:49:17;;;;;;;;;;;;;;;38.05;61.19;99762.09;4470862;32;19981;-85
2022/06/27 10:51:43;;;;;;;;;;;;;;;38.06;61.19;99761.03;4462307;32;20022;-85
2022/06/27 10:54:08;;;;;;;;;;;;;;;38.22;61.20;99758.78;4462251;32;29316;-85
2022/06/27 10:56:37;;;;;;;;;;;;;;;38.43;61.21;99757.47;4446030;32;20242;-86
2022/06/27 10:59:07;;;;;;;;;;;;;;;38.44;61.21;99753.69;4455178;32;19981;-85
2022/06/27 11:01:33;;;;;;;;;;;;;;;38.49;61.21;99751.09;4455390;32;19977;-85
2022/06/27 11:03:58;;;;;;;;;;;;;;;38.55;61.21;99745.56;4455035;32;20020;-84
2022/06/27 11:06:23;;;;;;;;;;;;;;;38.64;61.22;99740.69;4442139;32;19988;-85
2022/06/27 11:08:49;;;;;;;;;;;;;;;38.79;61.23;99754.66;4442017;32;20006;-85
2022/06/27 11:11:16;;;;;;;;;;;;;;;38.87;61.24;99739.91;4442069;32;19979;-84
2022/06/27 11:13:41;;;;;;;;;;;;;;;38.94;61.23;99738.72;4456835;32;20003;-83
2022/06/27 11:16:07;;;;;;;;;;;;;;;38.99;61.24;99738.00;4457191;32;19989;-84
2022/06/27 11:18:46;;;;;;;;;;;;;;;39.00;61.24;99742.41;4443817;32;19973;-84
2022/06/27 11:21:12;;;;;;;;;;;;;;;39.18;61.25;99730.62;4443722;32;20507;-84
2022/06/27 11:23:57;;;;;;;;;;;;;;;39.17;61.25;99729.78;4443602;32;19981;-84
2022/06/27 11:26:24;;;;;;;;;;;;;;;39.15;61.25;99729.19;4445910;32;20009;-84
2022/06/27 11:34:18;;;;;;;;;;;;;;;39.31;61.25;99696.87;4458891;32;20388;-84
2022/06/27 11:36:43;;;;;;;;;;;;;;;39.35;61.25;99706.22;4445627;32;20001;-84
2022/06/27 11:39:09;;;;;;;;;;;;;;;39.38;61.25;99701.13;4456344;32;19977;-84
2022/06/27 11:41:37;;;;;;;;;;;;;;;39.48;61.25;99711.41;4456589;32;19965;-84
2022/06/27 11:44:03;;;;;;;;;;;;;;;39.23;61.25;99714.38;4443487;32;20019;-84
2022/06/27 11:46:32;;;;;;;;;;;;;;;39.17;61.25;99710.72;4456501;32;20006;-84
2022/06/27 11:49:01;;;;;;;;;;;;;;;39.20;61.25;99717.59;4470724;32;20005;-84
2022/06/27 11:51:27;;;;;;;;;;;;;;;39.37;61.25;99709.56;4456747;32;19992;-84
2022/06/27 11:53:53;;;;;;;;;;;;;;;39.35;61.26;99700.78;4456340;32;19985;-84
2022/06/27 11:56:25;;;;;;;;;;;;;;;39.49;61.27;99691.28;4443833;32;20023;-84
2022/06/27 11:58:55;;;;;;;;;;;;;;;39.45;61.26;99707.28;4443620;32;20336;-84
2022/06/27 12:01:20;;;;;;;;;;;;;;;39.45;61.26;99698.28;4443886;32;20342;-84
2022/06/27 12:04:24;;;;;;;;;;;;;;;39.48;61.27;99695.91;4456079;32;21597;-84
2022/06/27 12:07:08;;;;;;;;;;;;;;;39.50;61.27;99696.50;4407213;32;19990;-84
2022/06/27 12:09:48;;;;;;;;;;;;;;;39.38;61.26;99694.88;4392235;32;20518;-84
2022/06/27 12:12:20;;;;;;;;;;;;;;;39.34;61.26;99693.69;4431859;32;19988;-84
2022/06/27 12:14:46;;;;;;;;;;;;;;;39.35;61.26;99689.91;4456493;32;20053;-84
2022/06/27 12:17:11;;;;;;;;;;;;;;;39.40;61.26;99677.22;4443680;32;20333;-84
2022/06/27 12:19:36;;;;;;;;;;;;;;;39.59;61.27;99678.75;4456544;32;19987;-84
2022/06/27 12:22:01;;;;;;;;;;;;;;;39.64;61.28;99671.75;4442951;32;20015;-84
2022/06/27 12:24:27;;;;;;;;;;;;;;;39.66;61.27;99683.25;4455911;32;20016;-84
2022/06/27 12:26:52;;;;;;;;;;;;;;;39.66;61.27;99673.16;4455727;32;24138;-83
2022/06/27 12:29:17;;;;;;;;;;;;;;;39.56;61.27;99678.41;4455984;32;20000;-84
2022/06/27 12:31:43;;;;;;;;;;;;;;;39.67;61.27;99677.53;4456835;32;20237;-84
2022/06/27 12:34:08;;;;;;;;;;;;;;;39.80;61.29;99671.84;4456036;32;20035;-84
2022/06/27 12:36:33;;;;;;;;;;;;;;;39.82;61.28;99668.88;4443006;32;20265;-84
2022/06/27 12:38:59;;;;;;;;;;;;;;;39.99;61.29;99669.78;4443044;32;20261;-84
2022/06/27 12:41:24;;;;;;;;;;;;;;;40.09;61.29;99666.44;4443157;32;19999;-84
2022/06/27 12:43:50;;;;;;;;;;;;;;;40.15;61.30;99660.00;4456096;32;20017;-84
2022/06/27 12:46:15;;;;;;;;;;;;;;;40.21;61.30;99659.00;4456313;32;20292;-84
2022/06/27 12:48:42;;;;;;;;;;;;;;;40.10;61.29;99660.72;4456075;32;20013;-84
2022/06/27 12:51:07;;;;;;;;;;;;;;;40.02;61.29;99661.12;4470331;32;19984;-84